createdAt,value
2018-10-18T00:00:20.221Z,11.40
2018-10-18T00:02:48.016Z,12.47
2018-10-18T00:05:15.906Z,12.97
2018-10-18T00:07:43.754Z,12.53
2018-10-18T00:11:35.201Z,12.45
2018-10-18T00:14:03.086Z,11.80
2018-10-18T00:16:31.221Z,11.93
2018-10-18T00:18:59.218Z,11.83
2018-10-18T00:21:26.873Z,11.50
2018-10-18T00:23:55.209Z,12.27
2018-10-18T00:26:23.001Z,11.10
2018-10-18T00:28:50.861Z,10.72
2018-10-18T00:31:18.953Z,11.17
2018-10-18T00:33:46.997Z,11.10
2018-10-18T00:36:14.971Z,11.23
2018-10-18T00:38:42.670Z,12.00
2018-10-18T00:43:37.845Z,11.90
2018-10-18T00:46:05.862Z,11.00
2018-10-18T00:48:33.746Z,10.63
2018-10-18T00:51:01.627Z,11.23
2018-10-18T00:53:29.524Z,11.67
2018-10-18T00:55:57.324Z,11.13
2018-10-18T00:58:25.038Z,13.93
2018-10-18T01:00:53.077Z,12.40
2018-10-18T01:03:20.788Z,12.23
2018-10-18T01:05:48.614Z,10.40
2018-10-18T01:08:16.563Z,11.13
2018-10-18T01:13:11.308Z,11.00
2018-10-18T01:15:39.017Z,10.93
2018-10-18T01:18:07.145Z,11.15
2018-10-18T01:20:41.313Z,11.93
2018-10-18T01:23:09.386Z,11.63
2018-10-18T01:25:37.553Z,10.50
2018-10-18T01:28:05.455Z,10.80
2018-10-18T01:30:33.307Z,11.50
2018-10-18T01:33:01.034Z,11.27
2018-10-18T01:35:29.006Z,10.25
2018-10-18T01:37:57.211Z,11.70
2018-10-18T01:40:25.046Z,11.60
2018-10-18T01:45:20.419Z,11.27
2018-10-18T01:47:48.393Z,11.00
2018-10-18T01:50:16.272Z,10.00
2018-10-18T01:52:44.153Z,10.70
2018-10-18T01:57:39.195Z,10.73
2018-10-18T02:00:07.997Z,10.60
2018-10-18T02:02:35.662Z,10.03
2018-10-18T02:05:03.491Z,10.40
2018-10-18T02:07:31.310Z,9.88
2018-10-18T02:09:59.030Z,11.30
2018-10-18T02:12:26.841Z,11.27
2018-10-18T02:14:54.636Z,11.20
2018-10-18T02:17:22.659Z,11.57
2018-10-18T02:19:50.590Z,11.27
2018-10-18T02:22:18.526Z,11.60
2018-10-18T02:24:46.582Z,11.20
2018-10-18T02:27:14.532Z,11.63
2018-10-18T02:29:42.185Z,10.80
2018-10-18T02:32:09.790Z,10.50
2018-10-18T02:34:37.638Z,12.68
2018-10-18T02:39:33.394Z,9.53
2018-10-18T02:42:01.371Z,9.60
2018-10-18T02:44:29.222Z,10.10
2018-10-18T02:46:56.949Z,9.90
2018-10-18T02:49:25.401Z,10.08
2018-10-18T02:51:53.191Z,10.80
2018-10-18T02:54:21.117Z,9.85
2018-10-18T02:56:48.806Z,10.50
2018-10-18T02:59:16.763Z,10.70
2018-10-18T03:01:44.631Z,11.57
2018-10-18T03:04:12.551Z,11.27
2018-10-18T03:06:40.322Z,11.33
2018-10-18T03:09:09.566Z,11.93
2018-10-18T03:11:37.422Z,10.90
2018-10-18T03:16:32.559Z,10.15
2018-10-18T03:19:00.478Z,10.47
2018-10-18T03:23:55.476Z,9.80
2018-10-18T03:26:23.382Z,10.30
2018-10-18T03:28:51.185Z,11.17
2018-10-18T03:31:18.903Z,11.20
2018-10-18T03:33:46.761Z,10.75
2018-10-18T03:38:42.953Z,9.20
2018-10-18T03:41:10.802Z,9.70
2018-10-18T03:43:38.670Z,10.73
2018-10-18T03:46:06.566Z,10.23
2018-10-18T03:48:34.598Z,11.80
2018-10-18T03:51:02.307Z,12.10
2018-10-18T03:54:26.035Z,9.75
2018-10-18T03:58:06.986Z,11.40
2018-10-18T04:00:34.753Z,10.80
2018-10-18T04:04:27.189Z,10.50
2018-10-18T04:06:55.172Z,10.73
2018-10-18T04:09:23.197Z,11.78
2018-10-18T04:11:50.872Z,11.03
2018-10-18T04:14:18.698Z,11.60
2018-10-18T04:16:46.755Z,11.30
2018-10-18T04:19:14.612Z,11.40
2018-10-18T04:21:42.377Z,11.17
2018-10-18T04:26:37.653Z,11.27
2018-10-18T04:29:05.465Z,10.10
2018-10-18T04:31:33.193Z,10.67
2018-10-18T04:34:00.810Z,10.83
2018-10-18T04:36:28.678Z,10.33
2018-10-18T04:38:56.582Z,10.23
2018-10-18T04:41:24.497Z,10.07
2018-10-18T04:43:52.409Z,10.28
2018-10-18T04:46:20.303Z,10.57
2018-10-18T04:48:48.022Z,10.25
2018-10-18T04:51:15.858Z,10.80
2018-10-18T04:53:43.730Z,10.33
2018-10-18T04:56:11.583Z,11.20
2018-10-18T04:58:39.486Z,11.90
2018-10-18T05:01:07.624Z,11.03
2018-10-18T05:03:35.313Z,10.67
2018-10-18T05:06:04.423Z,11.10
2018-10-18T05:08:32.349Z,10.90
2018-10-18T05:11:00.199Z,10.67
2018-10-18T05:13:28.052Z,10.43
2018-10-18T05:15:55.910Z,10.32
2018-10-18T05:18:23.910Z,10.03
2018-10-18T05:20:51.820Z,10.90
2018-10-18T05:23:19.659Z,9.80
2018-10-18T05:25:48.306Z,10.00
2018-10-18T05:28:16.036Z,10.47
2018-10-18T05:30:43.984Z,10.00
2018-10-18T05:35:39.105Z,10.33
2018-10-18T05:38:06.987Z,13.93
2018-10-18T05:43:02.339Z,11.03
2018-10-18T05:45:30.193Z,12.23
2018-10-18T05:47:58.406Z,12.73
2018-10-18T05:50:26.272Z,10.80
2018-10-18T05:52:54.039Z,10.43
2018-10-18T05:55:21.754Z,10.57
2018-10-18T05:57:49.613Z,10.28
2018-10-18T06:00:18.099Z,10.13
2018-10-18T06:05:14.797Z,11.75
2018-10-18T06:07:43.396Z,12.30
2018-10-18T06:11:55.222Z,10.03
2018-10-18T06:14:22.966Z,9.83
2018-10-18T06:16:50.677Z,10.40
2018-10-18T06:22:41.082Z,12.50
2018-10-18T06:25:09.415Z,11.60
2018-10-18T06:27:37.317Z,10.77
2018-10-18T06:30:07.205Z,12.25
2018-10-18T06:32:35.005Z,10.97
2018-10-18T06:35:03.051Z,10.90
2018-10-18T06:39:58.334Z,11.70
2018-10-18T06:42:26.051Z,12.67
2018-10-18T06:44:54.594Z,13.43
2018-10-18T06:47:22.452Z,13.00
2018-10-18T06:49:50.212Z,13.43
2018-10-18T06:52:18.101Z,13.32
2018-10-18T06:54:45.993Z,13.33
2018-10-18T06:57:13.826Z,14.47
2018-10-18T06:59:41.649Z,13.13
2018-10-18T07:02:09.314Z,13.22
2018-10-18T07:04:37.079Z,13.80
2018-10-18T07:07:04.990Z,13.87
2018-10-18T07:09:32.966Z,13.33
2018-10-18T07:12:00.817Z,14.87
2018-10-18T07:14:28.622Z,15.50
2018-10-18T07:16:56.506Z,15.57
2018-10-18T07:21:51.934Z,14.80
2018-10-18T07:24:20.597Z,14.55
2018-10-18T07:29:16.486Z,14.03
2018-10-18T07:31:44.346Z,14.83
2018-10-18T07:34:12.054Z,17.33
2018-10-18T07:39:11.370Z,18.30
2018-10-18T07:41:39.061Z,15.63
2018-10-18T07:44:06.791Z,15.70
2018-10-18T07:46:35.840Z,15.57
2018-10-18T07:49:04.530Z,16.20
2018-10-18T07:51:32.397Z,16.53
2018-10-18T07:54:00.458Z,17.97
2018-10-18T07:58:55.690Z,15.70
2018-10-18T08:03:51.400Z,18.37
2018-10-18T08:06:19.224Z,16.37
2018-10-18T08:08:46.997Z,18.67
2018-10-18T08:11:14.812Z,17.90
2018-10-18T08:13:42.775Z,19.43
2018-10-18T08:16:10.610Z,20.77
2018-10-18T08:18:38.468Z,16.97
2018-10-18T08:21:06.465Z,18.13
2018-10-18T08:23:34.216Z,18.63
2018-10-18T08:26:01.996Z,18.63
2018-10-18T08:28:29.898Z,19.10
2018-10-18T08:30:58.644Z,20.80
2018-10-18T08:33:26.482Z,18.23
2018-10-18T08:38:22.475Z,18.53
2018-10-18T08:40:50.518Z,22.33
2018-10-18T08:43:19.063Z,17.15
2018-10-18T08:45:46.975Z,19.60
2018-10-18T08:48:14.885Z,18.47
2018-10-18T08:50:42.700Z,17.50
2018-10-18T08:53:10.603Z,17.65
2018-10-18T08:55:38.543Z,22.57
2018-10-18T09:00:33.687Z,21.30
2018-10-18T09:03:01.554Z,19.50
2018-10-18T09:05:29.289Z,19.80
2018-10-18T09:07:57.005Z,17.10
2018-10-18T09:10:25.687Z,23.20
2018-10-18T09:12:53.601Z,17.30
2018-10-18T09:15:21.598Z,20.52
2018-10-18T09:17:49.486Z,20.27
2018-10-18T09:22:44.694Z,17.83
2018-10-18T09:25:12.724Z,21.73
2018-10-18T09:27:41.004Z,17.85
2018-10-18T09:30:11.049Z,18.13
2018-10-18T09:35:06.460Z,21.27
2018-10-18T09:37:34.591Z,15.57
2018-10-18T09:40:02.408Z,16.85
2018-10-18T09:42:30.607Z,16.90
2018-10-18T09:44:58.642Z,16.47
2018-10-18T09:47:26.711Z,16.67
2018-10-18T09:49:54.756Z,18.55
2018-10-18T09:52:22.604Z,17.48
2018-10-18T09:54:50.513Z,16.83
2018-10-18T09:59:45.591Z,19.95
2018-10-18T10:02:19.629Z,20.20
2018-10-18T10:04:47.569Z,19.67
2018-10-18T10:09:42.606Z,17.50
2018-10-18T10:12:10.597Z,16.90
2018-10-18T10:17:06.860Z,16.37
2018-10-18T10:19:34.673Z,17.53
2018-10-18T10:22:02.601Z,16.37
2018-10-18T10:24:30.565Z,15.93
2018-10-18T10:29:25.610Z,14.65
2018-10-18T10:31:53.612Z,15.93
2018-10-18T10:34:21.485Z,18.37
2018-10-18T10:36:49.318Z,18.33
2018-10-18T10:39:17.164Z,18.23
2018-10-18T10:41:45.227Z,18.93
2018-10-18T10:44:13.085Z,17.67
2018-10-18T10:46:41.018Z,18.47
2018-10-18T10:49:09.062Z,20.05
2018-10-18T10:51:37.061Z,17.70
2018-10-18T10:54:06.719Z,16.40
2018-10-18T10:56:34.470Z,15.97
2018-10-18T10:59:18.865Z,20.53
2018-10-18T11:01:46.951Z,15.87
2018-10-18T11:04:14.907Z,18.37
2018-10-18T11:06:42.773Z,16.57
2018-10-18T11:09:11.236Z,16.43
2018-10-18T11:11:39.062Z,17.60
2018-10-18T11:14:06.938Z,17.67
2018-10-18T11:16:35.073Z,17.60
2018-10-18T11:19:03.467Z,16.67
2018-10-18T11:21:34.137Z,17.97
2018-10-18T11:24:02.011Z,18.90
2018-10-18T11:26:29.827Z,19.60
2018-10-18T11:28:57.951Z,17.50
2018-10-18T11:31:25.754Z,17.63
2018-10-18T11:38:48.423Z,18.63
2018-10-18T11:41:16.503Z,16.43
2018-10-18T11:43:44.234Z,20.67
2018-10-18T11:46:12.049Z,17.33
2018-10-18T11:48:39.897Z,16.48
2018-10-18T11:51:07.726Z,17.43
2018-10-18T11:53:35.561Z,16.13
2018-10-18T11:56:03.242Z,16.07
2018-10-18T12:00:58.521Z,16.12
2018-10-18T12:03:26.329Z,23.07
2018-10-18T12:05:54.075Z,17.70
2018-10-18T12:08:21.916Z,18.93
2018-10-18T12:10:49.742Z,18.20
2018-10-18T12:13:17.609Z,15.10
2018-10-18T12:15:45.445Z,16.03
2018-10-18T12:18:13.204Z,15.37
2018-10-18T12:20:41.201Z,16.10
2018-10-18T12:23:09.061Z,16.17
2018-10-18T12:25:36.785Z,14.53
2018-10-18T12:28:04.606Z,15.00
2018-10-18T12:30:32.434Z,14.07
2018-10-18T12:33:00.229Z,15.50
2018-10-18T12:35:28.335Z,14.93
2018-10-18T12:37:56.086Z,15.37
2018-10-18T12:40:23.869Z,15.80
2018-10-18T12:42:52.042Z,15.33
2018-10-18T12:45:19.819Z,14.90
2018-10-18T12:47:47.726Z,15.03
2018-10-18T12:50:15.640Z,15.47
2018-10-18T12:52:43.843Z,14.67
2018-10-18T12:55:11.678Z,15.53
2018-10-18T12:57:39.570Z,14.90
2018-10-18T13:00:08.990Z,15.33
2018-10-18T13:02:36.990Z,14.97
2018-10-18T13:05:06.798Z,14.93
2018-10-18T13:07:34.642Z,15.50
2018-10-18T13:10:02.639Z,16.32
2018-10-18T13:12:30.652Z,15.40
2018-10-18T13:14:58.501Z,15.88
2018-10-18T13:17:26.355Z,15.87
2018-10-18T13:19:54.219Z,15.70
2018-10-18T13:22:22.043Z,14.60
2018-10-18T13:24:49.974Z,14.25
2018-10-18T13:29:45.206Z,14.57
2018-10-18T13:32:13.226Z,15.47
2018-10-18T13:34:41.058Z,14.80
2018-10-18T13:37:08.873Z,15.37
2018-10-18T13:39:36.695Z,13.67
2018-10-18T13:44:32.419Z,14.45
2018-10-18T13:47:00.199Z,14.90
2018-10-18T13:49:27.874Z,14.75
2018-10-18T13:51:55.754Z,15.47
2018-10-18T13:54:23.600Z,18.50
2018-10-18T13:56:51.309Z,15.40
2018-10-18T13:59:37.020Z,15.48
2018-10-18T14:02:05.308Z,15.37
2018-10-18T14:04:33.219Z,16.00
2018-10-18T14:09:28.285Z,15.20
2018-10-18T14:11:56.023Z,15.50
2018-10-18T14:14:23.949Z,14.75
2018-10-18T14:16:51.926Z,14.77
2018-10-18T14:19:19.951Z,14.47
2018-10-18T14:21:47.946Z,15.00
2018-10-18T14:28:06.624Z,15.00
2018-10-18T14:33:01.703Z,13.87
2018-10-18T14:35:29.541Z,14.23
2018-10-18T14:37:57.334Z,13.90
2018-10-18T14:40:25.020Z,14.35
2018-10-18T14:42:53.690Z,15.07
2018-10-18T14:45:21.514Z,13.70
2018-10-18T14:47:49.571Z,13.88
2018-10-18T14:50:23.681Z,13.93
2018-10-18T14:52:51.486Z,15.10
2018-10-18T14:55:19.570Z,17.60
2018-10-18T14:57:47.558Z,23.57
2018-10-18T15:00:15.486Z,24.70
2018-10-18T15:02:43.216Z,22.05
2018-10-18T15:05:11.951Z,25.83
2018-10-18T15:07:40.381Z,21.27
2018-10-18T15:10:10.866Z,20.00
2018-10-18T15:12:38.820Z,20.10
2018-10-18T15:15:08.233Z,21.30
2018-10-18T15:17:35.943Z,18.83
2018-10-18T15:20:05.113Z,25.43
2018-10-18T15:22:33.034Z,23.13
2018-10-18T15:25:01.273Z,21.70
2018-10-18T15:27:29.110Z,19.80
2018-10-18T15:29:58.853Z,15.80
2018-10-18T15:32:30.452Z,15.60
2018-10-18T15:37:28.778Z,18.62
2018-10-18T15:39:58.662Z,23.92
2018-10-18T15:42:27.885Z,15.40
2018-10-18T15:44:57.767Z,14.77
2018-10-18T15:47:27.945Z,18.47
2018-10-18T15:49:57.902Z,14.00
2018-10-18T15:52:27.607Z,17.70
2018-10-18T15:54:56.834Z,21.27
2018-10-18T16:02:26.202Z,13.20
2018-10-18T16:04:53.824Z,26.42
2018-10-18T16:07:21.621Z,13.33
2018-10-18T16:09:49.617Z,20.93
2018-10-18T16:12:18.219Z,17.67
2018-10-18T16:14:46.066Z,16.23
2018-10-18T16:17:14.573Z,16.60
2018-10-18T16:19:42.302Z,12.45
2018-10-18T16:22:10.026Z,16.97
2018-10-18T16:24:37.888Z,16.50
2018-10-18T16:27:05.642Z,13.10
2018-10-18T16:29:33.301Z,11.97
2018-10-18T16:32:01.044Z,14.60
2018-10-18T16:34:29.222Z,14.80
2018-10-18T16:36:56.954Z,13.27
2018-10-18T16:39:24.776Z,12.40
2018-10-18T16:44:19.762Z,22.67
2018-10-18T16:47:25.209Z,13.98
2018-10-18T16:49:53.416Z,20.97
2018-10-18T16:52:21.608Z,23.67
2018-10-18T16:54:50.013Z,13.83
2018-10-18T16:57:17.926Z,17.40
2018-10-18T16:59:45.664Z,12.33
2018-10-18T17:02:13.738Z,15.67
2018-10-18T17:04:41.590Z,15.50
2018-10-18T17:07:09.258Z,13.57
2018-10-18T17:09:36.962Z,16.97
2018-10-18T17:14:32.783Z,12.17
2018-10-18T17:17:00.611Z,14.40
2018-10-18T17:19:28.546Z,10.73
2018-10-18T17:21:56.213Z,10.50
2018-10-18T17:24:23.856Z,11.00
2018-10-18T17:26:51.786Z,11.50
2018-10-18T17:31:46.786Z,11.20
2018-10-18T17:34:14.635Z,9.93
2018-10-18T17:36:42.538Z,12.63
2018-10-18T17:39:10.821Z,10.53
2018-10-18T17:41:38.586Z,10.57
2018-10-18T17:44:07.065Z,9.83
2018-10-18T17:49:01.821Z,12.07
2018-10-18T17:51:29.613Z,11.03
2018-10-18T17:53:57.498Z,10.43
2018-10-18T17:58:52.810Z,10.07
2018-10-18T18:01:20.666Z,9.80
2018-10-18T18:03:48.302Z,9.20
2018-10-18T18:06:16.099Z,10.15
2018-10-18T18:08:44.046Z,9.30
2018-10-18T18:13:38.992Z,9.23
2018-10-18T18:16:06.764Z,8.63
2018-10-18T18:18:34.497Z,8.60
2018-10-18T18:21:02.207Z,9.37
2018-10-18T18:23:53.017Z,10.13
2018-10-18T18:26:20.721Z,10.00
2018-10-18T18:28:48.767Z,9.00
2018-10-18T18:31:16.579Z,9.50
2018-10-18T18:33:44.193Z,8.93
2018-10-18T18:36:12.040Z,8.90
2018-10-18T18:38:39.749Z,8.33
2018-10-18T18:41:07.573Z,9.00
2018-10-18T18:43:35.197Z,8.43
2018-10-18T18:48:30.216Z,9.18
2018-10-18T18:50:57.993Z,8.67
2018-10-18T18:53:25.726Z,8.77
2018-10-18T18:58:20.918Z,9.53
2018-10-18T19:00:48.698Z,9.43
2018-10-18T19:03:16.531Z,9.10
2018-10-18T19:05:44.775Z,9.23
2018-10-18T19:08:13.522Z,9.67
2018-10-18T19:10:41.200Z,11.23
2018-10-18T19:13:08.963Z,9.57
2018-10-18T19:18:04.992Z,9.13
2018-10-18T19:20:32.668Z,8.65
2018-10-18T19:23:00.610Z,8.57
2018-10-18T19:25:28.557Z,8.47
2018-10-18T19:27:56.302Z,9.37
2018-10-18T19:30:23.990Z,7.80
2018-10-18T19:32:51.850Z,8.60
2018-10-18T19:36:10.767Z,9.03
2018-10-18T19:38:39.658Z,9.60
2018-10-18T19:41:07.585Z,9.90
2018-10-18T19:43:35.836Z,9.50
2018-10-18T19:46:04.636Z,9.48
2018-10-18T19:48:32.597Z,9.10
2018-10-18T19:51:00.598Z,8.80
2018-10-18T19:53:32.294Z,8.00
2018-10-18T19:56:00.033Z,7.75
2018-10-18T19:58:28.054Z,8.33
2018-10-18T20:00:55.984Z,9.07
2018-10-18T20:03:23.723Z,8.33
2018-10-18T20:05:51.603Z,8.60
2018-10-18T20:08:19.539Z,9.77
2018-10-18T20:10:47.807Z,11.23
2018-10-18T20:13:16.054Z,12.07
2018-10-18T20:15:44.202Z,13.10
2018-10-18T20:20:39.196Z,13.37
2018-10-18T20:23:06.934Z,12.25
2018-10-18T20:25:34.839Z,11.20
2018-10-18T20:28:03.202Z,11.50
2018-10-18T20:30:31.967Z,11.27
2018-10-18T20:33:00.011Z,12.70
2018-10-18T20:37:55.043Z,11.87
2018-10-18T20:40:23.046Z,13.23
2018-10-18T20:42:50.896Z,15.07
2018-10-18T20:47:56.642Z,11.60
2018-10-18T20:50:24.585Z,15.93
2018-10-18T20:53:58.874Z,12.15
2018-10-18T20:56:26.617Z,11.83
2018-10-18T20:58:54.780Z,16.25
2018-10-18T21:01:22.599Z,13.00
2018-10-18T21:03:50.525Z,10.70
2018-10-18T21:06:18.284Z,10.63
2018-10-18T21:08:45.989Z,13.30
2018-10-18T21:11:13.793Z,13.33
2018-10-18T21:13:41.559Z,11.20
2018-10-18T21:16:09.607Z,11.17
2018-10-18T21:21:05.076Z,13.03
2018-10-18T21:23:33.093Z,12.47
2018-10-18T21:26:00.818Z,11.87
2018-10-18T21:28:28.770Z,11.60
2018-10-18T21:33:24.859Z,10.60
2018-10-18T21:35:52.670Z,13.07
2018-10-18T21:38:20.589Z,13.17
2018-10-18T21:40:48.622Z,11.10
2018-10-18T21:43:16.646Z,11.03
2018-10-18T21:45:44.854Z,11.57
2018-10-18T21:48:12.958Z,12.40
2018-10-18T21:53:08.263Z,12.40
2018-10-18T21:55:36.046Z,11.33
2018-10-18T21:58:04.057Z,13.75
2018-10-18T22:00:36.501Z,13.43
2018-10-18T22:03:04.535Z,12.23
2018-10-18T22:05:32.692Z,14.30
2018-10-18T22:08:00.575Z,12.85
2018-10-18T22:10:28.730Z,11.53
2018-10-18T22:12:56.687Z,11.80
2018-10-18T22:15:24.563Z,14.33
2018-10-18T22:17:52.486Z,15.13
2018-10-18T22:22:47.602Z,11.05
2018-10-18T22:25:15.506Z,11.43
2018-10-18T22:30:10.468Z,11.20
2018-10-18T22:32:38.343Z,9.73
2018-10-18T22:35:06.165Z,11.73
2018-10-18T22:37:34.007Z,12.63
2018-10-18T22:40:01.950Z,11.63
2018-10-18T22:44:57.656Z,12.43
2018-10-18T22:47:25.765Z,12.57
2018-10-18T22:49:53.806Z,12.60
2018-10-18T22:53:27.387Z,11.17
2018-10-18T22:55:55.449Z,12.73
2018-10-18T22:58:23.659Z,11.33
2018-10-18T23:00:51.409Z,11.63
2018-10-18T23:03:20.026Z,11.60
2018-10-18T23:05:48.625Z,13.63
2018-10-18T23:08:16.625Z,12.68
2018-10-18T23:10:44.916Z,12.57
2018-10-18T23:13:12.885Z,13.30
2018-10-18T23:18:09.002Z,12.20
2018-10-18T23:23:05.008Z,11.23
2018-10-18T23:25:32.722Z,11.05
2018-10-18T23:28:00.638Z,13.13
2018-10-18T23:30:28.462Z,10.37
2018-10-18T23:32:56.244Z,11.37
2018-10-18T23:35:23.946Z,11.12
2018-10-18T23:37:51.681Z,10.30
2018-10-18T23:40:19.686Z,11.57
2018-10-18T23:42:47.662Z,11.97
2018-10-18T23:45:15.670Z,10.90
2018-10-18T23:47:43.592Z,11.07
2018-10-18T23:50:11.398Z,11.80
2018-10-18T23:52:39.222Z,11.60
2018-10-18T23:55:07.007Z,12.67
2018-10-18T23:57:34.890Z,11.83
